createdAt,value
2023-03-29T00:02:07.702Z,2.03
2023-03-29T00:04:35.356Z,2.45
2023-03-29T00:07:04.500Z,1.80
2023-03-29T00:09:33.217Z,1.80
2023-03-29T00:12:01.482Z,1.95
2023-03-29T00:14:30.943Z,1.90
2023-03-29T00:16:59.128Z,2.00
2023-03-29T00:19:26.738Z,1.77
2023-03-29T00:21:54.048Z,2.22
2023-03-29T00:24:21.479Z,1.98
2023-03-29T00:26:48.719Z,2.00
2023-03-29T00:29:16.062Z,1.95
2023-03-29T00:31:45.943Z,2.00
2023-03-29T00:34:13.038Z,2.35
2023-03-29T00:36:40.507Z,1.98
2023-03-29T00:39:07.627Z,1.90
2023-03-29T00:41:35.054Z,1.75
2023-03-29T00:44:04.610Z,1.92
2023-03-29T00:46:32.399Z,2.30
2023-03-29T00:49:08.811Z,1.60
2023-03-29T00:51:38.306Z,2.25
2023-03-29T00:54:10.576Z,1.85
2023-03-29T00:56:40.430Z,2.10
2023-03-29T00:59:16.176Z,2.70
2023-03-29T01:01:54.902Z,2.50
2023-03-29T01:04:24.073Z,1.95
2023-03-29T01:07:06.861Z,2.20
2023-03-29T01:09:37.523Z,1.95
2023-03-29T01:12:12.222Z,2.17
2023-03-29T01:14:49.748Z,2.40
2023-03-29T01:17:16.848Z,2.13
2023-03-29T01:19:50.136Z,2.30
2023-03-29T01:22:28.755Z,2.80
2023-03-29T01:25:07.484Z,2.33
2023-03-29T01:27:43.696Z,2.60
2023-03-29T01:30:19.530Z,2.40
2023-03-29T01:35:39.161Z,2.10
2023-03-29T01:38:21.570Z,1.60
2023-03-29T01:40:48.774Z,2.47
2023-03-29T01:43:23.375Z,2.28
2023-03-29T01:46:21.514Z,2.67
2023-03-29T01:48:57.986Z,2.65
2023-03-29T01:51:39.545Z,2.45
2023-03-29T01:54:35.329Z,1.70
2023-03-29T01:57:04.750Z,2.17
2023-03-29T01:59:35.994Z,1.92
2023-03-29T02:02:08.236Z,2.03
2023-03-29T02:04:39.872Z,1.67
2023-03-29T02:07:09.227Z,2.00
2023-03-29T02:09:38.358Z,2.33
2023-03-29T02:12:07.868Z,1.98
2023-03-29T02:14:35.526Z,1.85
2023-03-29T02:17:16.668Z,2.15
2023-03-29T02:19:46.100Z,2.15
2023-03-29T02:22:15.242Z,2.08
2023-03-29T02:24:44.585Z,2.17
2023-03-29T02:27:12.208Z,2.03
2023-03-29T02:29:41.088Z,2.47
2023-03-29T02:32:24.792Z,2.20
2023-03-29T02:35:04.528Z,2.53
2023-03-29T02:37:34.458Z,3.13
2023-03-29T02:40:07.983Z,2.60
2023-03-29T02:42:37.229Z,2.88
2023-03-29T02:45:05.826Z,2.33
2023-03-29T02:47:37.244Z,2.75
2023-03-29T02:50:04.907Z,2.35
2023-03-29T02:52:37.140Z,2.50
2023-03-29T02:55:08.917Z,2.38
2023-03-29T02:57:38.320Z,2.20
2023-03-29T03:00:10.179Z,2.70
2023-03-29T03:02:40.419Z,3.50
2023-03-29T03:05:09.281Z,2.35
2023-03-29T03:07:36.280Z,2.50
2023-03-29T03:10:04.043Z,2.30
2023-03-29T03:12:31.252Z,2.55
2023-03-29T03:14:58.397Z,2.35
2023-03-29T03:17:25.401Z,2.15
2023-03-29T03:19:53.200Z,2.75
2023-03-29T03:22:20.609Z,2.50
2023-03-29T03:24:47.599Z,2.95
2023-03-29T03:27:14.650Z,2.58
2023-03-29T03:29:42.196Z,2.90
2023-03-29T03:32:29.434Z,3.13
2023-03-29T03:35:16.344Z,2.72
2023-03-29T03:37:43.435Z,2.90
2023-03-29T03:40:11.802Z,3.22
2023-03-29T03:42:42.604Z,3.80
2023-03-29T03:45:10.608Z,3.45
2023-03-29T03:47:51.556Z,3.05
2023-03-29T03:50:53.254Z,2.78
2023-03-29T03:53:22.138Z,2.78
2023-03-29T03:56:10.820Z,3.00
2023-03-29T03:58:56.860Z,2.90
2023-03-29T04:01:27.221Z,2.72
2023-03-29T04:04:04.633Z,2.88
2023-03-29T04:06:32.607Z,3.08
2023-03-29T04:09:29.950Z,2.63
2023-03-29T04:12:11.204Z,3.20
2023-03-29T04:14:40.397Z,2.60
2023-03-29T04:17:11.079Z,2.50
2023-03-29T04:19:48.660Z,3.42
2023-03-29T04:22:15.871Z,3.45
2023-03-29T04:24:43.435Z,2.47
2023-03-29T04:27:36.848Z,3.13
2023-03-29T04:30:11.423Z,2.80
2023-03-29T04:32:57.136Z,2.90
2023-03-29T04:35:25.045Z,2.63
2023-03-29T04:37:54.606Z,3.97
2023-03-29T04:40:22.872Z,3.25
2023-03-29T04:43:08.339Z,3.40
2023-03-29T04:45:38.128Z,3.28
2023-03-29T04:48:13.653Z,3.53
2023-03-29T04:50:46.745Z,3.58
2023-03-29T04:53:15.280Z,3.63
2023-03-29T04:55:46.006Z,3.40
2023-03-29T04:58:16.119Z,3.97
2023-03-29T05:00:43.880Z,3.30
2023-03-29T05:03:25.582Z,3.90
2023-03-29T05:06:15.688Z,3.25
2023-03-29T05:08:42.694Z,4.22
2023-03-29T05:11:20.422Z,3.83
2023-03-29T05:13:47.668Z,3.83
2023-03-29T05:16:15.869Z,3.30
2023-03-29T05:18:43.299Z,3.92
2023-03-29T05:21:11.024Z,3.92
2023-03-29T05:23:41.388Z,4.43
2023-03-29T05:26:37.670Z,3.63
2023-03-29T05:29:04.712Z,3.75
2023-03-29T05:31:32.680Z,3.08
2023-03-29T05:34:00.012Z,3.25
2023-03-29T05:36:28.978Z,3.20
2023-03-29T05:38:57.153Z,3.70
2023-03-29T05:41:25.702Z,3.58
2023-03-29T05:44:11.281Z,3.30
2023-03-29T05:46:41.105Z,3.42
2023-03-29T05:49:13.954Z,3.35
2023-03-29T05:51:58.608Z,3.95
2023-03-29T05:54:27.384Z,3.38
2023-03-29T05:56:57.110Z,3.38
2023-03-29T05:59:24.545Z,3.22
2023-03-29T06:01:51.945Z,3.65
2023-03-29T06:04:21.553Z,3.25
2023-03-29T06:07:07.098Z,3.63
2023-03-29T06:09:34.222Z,3.67
2023-03-29T06:12:04.314Z,4.13
2023-03-29T06:14:38.585Z,3.58
2023-03-29T06:17:16.273Z,4.03
2023-03-29T06:19:44.459Z,3.30
2023-03-29T06:22:13.722Z,3.90
2023-03-29T06:24:42.147Z,3.67
2023-03-29T06:27:17.627Z,4.30
2023-03-29T06:29:45.353Z,3.65
2023-03-29T06:32:12.684Z,4.15
2023-03-29T06:34:55.379Z,3.90
2023-03-29T06:37:32.531Z,4.50
2023-03-29T06:40:21.273Z,4.13
2023-03-29T06:42:48.913Z,4.45
2023-03-29T06:45:36.454Z,3.92
2023-03-29T06:48:08.320Z,4.32
2023-03-29T06:50:35.963Z,5.00
2023-03-29T06:53:09.172Z,3.92
2023-03-29T06:55:36.378Z,4.53
2023-03-29T06:58:23.134Z,4.13
2023-03-29T07:00:50.043Z,3.65
2023-03-29T07:03:24.981Z,4.23
2023-03-29T07:06:02.731Z,2.95
2023-03-29T07:08:31.611Z,3.00
2023-03-29T07:11:04.285Z,4.03
2023-03-29T07:13:34.470Z,2.60
2023-03-29T07:16:04.822Z,2.53
2023-03-29T07:18:58.128Z,2.53
2023-03-29T07:21:54.348Z,2.70
2023-03-29T07:24:26.493Z,2.42
2023-03-29T07:27:03.133Z,2.45
2023-03-29T07:29:32.280Z,2.80
2023-03-29T07:31:59.282Z,2.40
2023-03-29T07:34:49.205Z,3.28
2023-03-29T07:37:27.253Z,3.03
2023-03-29T07:39:56.721Z,3.30
2023-03-29T07:42:46.841Z,2.80
2023-03-29T07:45:20.420Z,3.08
2023-03-29T07:48:00.850Z,2.95
2023-03-29T07:50:38.637Z,2.83
2023-03-29T07:53:05.563Z,2.78
2023-03-29T07:55:33.808Z,2.40
2023-03-29T07:58:17.112Z,2.70
2023-03-29T08:00:44.125Z,2.58
2023-03-29T08:03:40.013Z,2.25
2023-03-29T08:06:07.657Z,2.50
2023-03-29T08:08:34.908Z,2.50
2023-03-29T08:11:10.082Z,2.40
2023-03-29T08:13:43.770Z,3.38
2023-03-29T08:16:36.767Z,4.45
2023-03-29T08:19:09.039Z,2.60
2023-03-29T08:21:59.157Z,2.15
2023-03-29T08:24:28.363Z,2.20
2023-03-29T08:27:00.699Z,2.05
2023-03-29T08:29:27.762Z,2.00
2023-03-29T08:31:56.433Z,2.00
2023-03-29T08:34:23.594Z,2.15
2023-03-29T08:37:15.747Z,1.80
2023-03-29T08:39:46.652Z,2.28
2023-03-29T08:42:59.149Z,1.88
2023-03-29T08:45:33.937Z,2.00
2023-03-29T08:48:08.625Z,2.63
2023-03-29T08:50:44.599Z,1.98
2023-03-29T08:53:45.166Z,2.53
2023-03-29T08:56:29.241Z,2.20
2023-03-29T08:59:01.159Z,2.28
2023-03-29T09:01:36.304Z,2.58
2023-03-29T09:04:09.116Z,2.10
2023-03-29T09:06:50.835Z,2.58
2023-03-29T09:09:26.655Z,2.30
2023-03-29T09:12:09.355Z,2.58
2023-03-29T09:14:48.805Z,2.33
2023-03-29T09:17:35.683Z,2.53
2023-03-29T09:20:48.741Z,2.53
2023-03-29T09:23:25.457Z,2.35
2023-03-29T09:26:31.248Z,2.42
2023-03-29T09:29:40.051Z,2.22
2023-03-29T09:32:19.555Z,4.13
2023-03-29T09:35:11.859Z,3.28
2023-03-29T09:37:41.151Z,2.60
2023-03-29T09:40:17.582Z,2.20
2023-03-29T09:45:22.957Z,3.63
2023-03-29T09:48:05.219Z,2.70
2023-03-29T09:50:37.875Z,2.70
2023-03-29T09:53:08.946Z,2.42
2023-03-29T09:55:40.651Z,2.92
2023-03-29T09:58:46.427Z,3.35
2023-03-29T10:01:20.325Z,2.70
2023-03-29T10:03:54.208Z,2.47
2023-03-29T10:06:26.674Z,2.42
2023-03-29T10:08:59.344Z,2.43
2023-03-29T10:11:38.487Z,2.90
2023-03-29T10:14:12.745Z,2.67
2023-03-29T10:16:42.094Z,2.55
2023-03-29T10:19:35.144Z,2.35
2023-03-29T10:22:11.889Z,2.17
2023-03-29T10:24:38.899Z,2.42
2023-03-29T10:27:11.678Z,2.50
2023-03-29T10:29:43.184Z,2.50
2023-03-29T10:32:30.425Z,2.47
2023-03-29T10:35:23.938Z,2.30
2023-03-29T10:37:53.273Z,3.00
2023-03-29T10:40:26.253Z,2.50
2023-03-29T10:42:54.056Z,2.03
2023-03-29T10:45:27.151Z,1.80
2023-03-29T10:47:57.916Z,1.90
2023-03-29T10:50:31.494Z,2.45
2023-03-29T10:52:58.545Z,2.58
2023-03-29T10:55:35.014Z,1.98
2023-03-29T10:58:39.319Z,1.88
2023-03-29T11:01:17.826Z,2.17
2023-03-29T11:04:06.519Z,2.35
2023-03-29T11:06:47.392Z,2.28
2023-03-29T11:09:46.203Z,2.00
2023-03-29T11:12:31.789Z,1.73
2023-03-29T11:15:10.644Z,2.22
2023-03-29T11:18:07.369Z,2.30
2023-03-29T11:20:56.382Z,2.63
2023-03-29T11:23:55.589Z,2.10
2023-03-29T11:26:39.965Z,2.78
2023-03-29T11:29:19.528Z,2.47
2023-03-29T11:32:01.697Z,1.90
2023-03-29T11:34:44.840Z,2.67
2023-03-29T11:37:36.472Z,2.38
2023-03-29T11:40:36.661Z,2.50
2023-03-29T11:43:19.105Z,2.50
2023-03-29T11:46:23.711Z,2.58
2023-03-29T11:48:52.991Z,2.72
2023-03-29T11:51:32.202Z,3.40
2023-03-29T11:54:15.377Z,2.35
2023-03-29T11:57:01.693Z,2.42
2023-03-29T11:59:43.136Z,2.58
2023-03-29T12:02:24.348Z,2.25
2023-03-29T12:04:58.695Z,2.10
2023-03-29T12:07:36.951Z,2.25
2023-03-29T12:10:19.178Z,2.13
2023-03-29T12:12:59.562Z,2.45
2023-03-29T12:15:32.034Z,1.88
2023-03-29T12:18:27.216Z,2.90
2023-03-29T12:21:01.774Z,2.58
2023-03-29T12:23:32.330Z,2.13
2023-03-29T12:26:31.717Z,1.92
2023-03-29T12:28:58.589Z,2.25
2023-03-29T12:31:53.175Z,2.58
2023-03-29T12:34:36.268Z,2.40
2023-03-29T12:37:38.908Z,2.70
2023-03-29T12:40:14.738Z,2.65
2023-03-29T12:43:07.303Z,3.03
2023-03-29T12:48:48.049Z,2.40
2023-03-29T12:51:18.381Z,2.05
2023-03-29T12:53:53.767Z,4.15
2023-03-29T12:56:34.951Z,3.42
2023-03-29T12:59:15.936Z,3.38
2023-03-29T13:02:01.109Z,3.25
2023-03-29T13:04:48.898Z,2.37
2023-03-29T13:07:27.912Z,2.78
2023-03-29T13:10:04.094Z,3.30
2023-03-29T13:12:37.464Z,3.22
2023-03-29T13:15:07.543Z,2.58
2023-03-29T13:17:55.380Z,3.10
2023-03-29T13:20:40.565Z,3.60
2023-03-29T13:23:23.262Z,3.15
2023-03-29T13:26:21.485Z,3.20
2023-03-29T13:29:09.919Z,2.47
2023-03-29T13:32:04.303Z,3.80
2023-03-29T13:34:46.444Z,3.40
2023-03-29T13:37:40.899Z,3.45
2023-03-29T13:40:30.400Z,3.90
2023-03-29T13:43:22.755Z,3.55
2023-03-29T13:45:58.576Z,2.80
2023-03-29T13:48:36.644Z,2.38
2023-03-29T13:51:18.456Z,3.63
2023-03-29T13:54:10.376Z,2.88
2023-03-29T13:56:55.321Z,4.03
2023-03-29T13:59:36.752Z,3.70
2023-03-29T14:02:06.515Z,2.85
2023-03-29T14:04:46.740Z,3.38
2023-03-29T14:07:15.483Z,3.50
2023-03-29T14:09:46.037Z,3.47
2023-03-29T14:12:14.573Z,3.33
2023-03-29T14:14:56.039Z,3.90
2023-03-29T14:17:25.717Z,4.32
2023-03-29T14:19:53.525Z,3.78
2023-03-29T14:22:21.522Z,3.42
2023-03-29T14:24:53.605Z,3.78
2023-03-29T14:27:22.082Z,3.30
2023-03-29T14:29:53.134Z,3.90
2023-03-29T14:32:28.896Z,3.50
2023-03-29T14:34:55.829Z,3.60
2023-03-29T14:37:26.358Z,3.35
2023-03-29T14:39:53.825Z,3.72
2023-03-29T14:42:28.839Z,3.22
2023-03-29T14:45:04.203Z,2.90
2023-03-29T14:47:33.472Z,2.72
2023-03-29T14:50:01.751Z,3.72
2023-03-29T14:52:30.491Z,2.72
2023-03-29T14:55:00.871Z,2.55
2023-03-29T14:57:34.117Z,3.22
2023-03-29T15:00:22.230Z,3.00
2023-03-29T15:02:54.345Z,2.70
2023-03-29T15:05:39.586Z,2.70
2023-03-29T15:08:11.617Z,3.20
2023-03-29T15:10:39.595Z,2.85
2023-03-29T15:13:08.400Z,2.58
2023-03-29T15:15:39.011Z,3.20
2023-03-29T15:18:08.361Z,2.55
2023-03-29T15:20:41.413Z,2.42
2023-03-29T15:23:14.697Z,2.35
2023-03-29T15:26:06.765Z,2.40
2023-03-29T15:28:35.628Z,2.15
2023-03-29T15:31:13.757Z,2.70
2023-03-29T15:33:42.547Z,2.88
2023-03-29T15:36:13.557Z,2.50
2023-03-29T15:38:45.209Z,2.50
2023-03-29T15:41:16.166Z,2.60
2023-03-29T15:43:46.664Z,2.40
2023-03-29T15:46:14.057Z,2.38
2023-03-29T15:48:41.738Z,3.10
2023-03-29T15:51:12.983Z,2.55
2023-03-29T15:53:40.035Z,2.30
2023-03-29T15:56:11.276Z,2.85
2023-03-29T15:58:39.001Z,3.08
2023-03-29T16:01:34.001Z,2.80
2023-03-29T16:04:11.767Z,3.08
2023-03-29T16:06:38.757Z,2.75
2023-03-29T16:09:07.023Z,2.97
2023-03-29T16:11:34.369Z,2.78
2023-03-29T16:14:02.790Z,2.65
2023-03-29T16:16:29.782Z,2.97
2023-03-29T16:18:59.266Z,2.72
2023-03-29T16:21:29.552Z,2.45
2023-03-29T16:23:58.827Z,2.80
2023-03-29T16:26:31.045Z,2.45
2023-03-29T16:29:03.271Z,2.90
2023-03-29T16:31:35.717Z,2.50
2023-03-29T16:34:05.925Z,2.70
2023-03-29T16:36:35.370Z,2.88
2023-03-29T16:39:03.741Z,2.50
2023-03-29T16:41:33.351Z,2.85
2023-03-29T16:44:03.469Z,2.75
2023-03-29T16:46:32.994Z,2.85
2023-03-29T16:49:02.672Z,2.80
2023-03-29T16:51:32.788Z,2.50
2023-03-29T16:54:02.125Z,2.42
2023-03-29T16:56:31.121Z,2.88
2023-03-29T16:59:00.411Z,2.72
2023-03-29T17:01:29.908Z,2.45
2023-03-29T17:03:59.473Z,2.40
2023-03-29T17:06:28.963Z,2.97
2023-03-29T17:09:00.129Z,2.40
2023-03-29T17:11:30.198Z,2.53
2023-03-29T17:14:01.377Z,2.25
2023-03-29T17:16:30.614Z,3.15
2023-03-29T17:19:04.026Z,2.63
2023-03-29T17:21:34.732Z,2.90
2023-03-29T17:24:04.649Z,2.45
2023-03-29T17:26:35.545Z,2.42
2023-03-29T17:29:07.190Z,3.05
2023-03-29T17:31:48.036Z,2.80
2023-03-29T17:34:20.111Z,3.88
2023-03-29T17:36:49.473Z,2.85
2023-03-29T17:39:19.740Z,2.60
2023-03-29T17:41:49.408Z,2.45
2023-03-29T17:44:18.716Z,3.38
2023-03-29T17:46:48.383Z,2.45
2023-03-29T17:49:17.736Z,2.90
2023-03-29T17:51:46.513Z,2.83
2023-03-29T17:54:17.727Z,3.10
2023-03-29T17:56:48.101Z,2.58
2023-03-29T17:59:19.198Z,2.92
2023-03-29T18:01:48.830Z,2.78
2023-03-29T18:04:19.050Z,2.22
2023-03-29T18:06:50.257Z,3.30
2023-03-29T18:09:20.830Z,3.50
2023-03-29T18:11:50.796Z,2.42
2023-03-29T18:14:23.082Z,2.50
2023-03-29T18:16:54.324Z,2.35
2023-03-29T18:19:24.283Z,2.90
2023-03-29T18:21:54.010Z,2.25
2023-03-29T18:24:24.443Z,2.53
2023-03-29T18:26:56.948Z,2.72
2023-03-29T18:29:27.638Z,2.67
2023-03-29T18:31:57.147Z,2.83
2023-03-29T18:34:28.119Z,2.40
2023-03-29T18:36:58.886Z,2.22
2023-03-29T18:39:29.188Z,2.78
2023-03-29T18:41:58.328Z,2.72
2023-03-29T18:44:28.262Z,2.53
2023-03-29T18:46:57.390Z,2.53
2023-03-29T18:49:27.968Z,2.35
2023-03-29T18:51:57.677Z,3.20
2023-03-29T18:54:27.633Z,2.97
2023-03-29T18:56:59.135Z,2.88
2023-03-29T18:59:28.981Z,2.40
2023-03-29T19:01:58.437Z,2.95
2023-03-29T19:04:27.726Z,2.63
2023-03-29T19:06:57.306Z,2.80
2023-03-29T19:09:28.392Z,1.88
2023-03-29T19:11:58.833Z,3.20
2023-03-29T19:14:27.899Z,2.97
2023-03-29T19:16:59.057Z,2.70
2023-03-29T19:19:29.394Z,3.00
2023-03-29T19:22:00.813Z,3.17
2023-03-29T19:24:30.732Z,3.03
2023-03-29T19:27:01.125Z,2.90
2023-03-29T19:29:34.374Z,3.05
2023-03-29T19:32:07.994Z,3.17
2023-03-29T19:34:38.836Z,1.92
2023-03-29T19:37:07.268Z,3.50
2023-03-29T19:39:36.778Z,2.20
2023-03-29T19:42:04.355Z,3.10
2023-03-29T19:44:33.723Z,2.75
2023-03-29T19:47:01.997Z,2.47
2023-03-29T19:49:36.642Z,3.08
2023-03-29T19:52:06.313Z,2.65
2023-03-29T19:54:34.873Z,3.28
2023-03-29T19:57:04.344Z,3.35
2023-03-29T19:59:32.988Z,3.35
2023-03-29T20:02:03.342Z,2.78
2023-03-29T20:04:38.775Z,3.13
2023-03-29T20:07:11.436Z,3.58
2023-03-29T20:09:38.910Z,3.78
2023-03-29T20:12:07.276Z,2.33
2023-03-29T20:14:39.597Z,2.30
2023-03-29T20:17:12.166Z,2.70
2023-03-29T20:19:44.079Z,2.50
2023-03-29T20:22:15.550Z,2.80
2023-03-29T20:24:42.613Z,2.60
2023-03-29T20:27:11.010Z,2.45
2023-03-29T20:29:38.073Z,3.35
2023-03-29T20:32:06.622Z,3.70
2023-03-29T20:34:35.240Z,4.03
2023-03-29T20:37:02.342Z,2.20
2023-03-29T20:39:31.490Z,2.33
2023-03-29T20:42:01.048Z,2.88
2023-03-29T20:44:28.483Z,3.00
2023-03-29T20:47:06.642Z,2.17
2023-03-29T20:49:38.524Z,3.60
2023-03-29T20:52:17.640Z,2.58
2023-03-29T20:54:45.386Z,2.63
2023-03-29T20:57:15.902Z,2.78
2023-03-29T20:59:44.464Z,2.83
2023-03-29T21:02:21.195Z,2.70
2023-03-29T21:04:52.952Z,3.58
2023-03-29T21:07:21.409Z,2.33
2023-03-29T21:09:49.958Z,2.53
2023-03-29T21:12:17.456Z,4.00
2023-03-29T21:14:44.733Z,2.75
2023-03-29T21:17:11.721Z,3.15
2023-03-29T21:19:39.494Z,3.03
2023-03-29T21:22:06.724Z,4.88
2023-03-29T21:24:34.055Z,2.80
2023-03-29T21:27:01.241Z,3.33
2023-03-29T21:29:28.259Z,2.90
2023-03-29T21:31:55.499Z,2.85
2023-03-29T21:34:22.706Z,3.88
2023-03-29T21:36:50.041Z,2.92
2023-03-29T21:39:17.158Z,2.83
2023-03-29T21:41:44.064Z,2.65
2023-03-29T21:44:11.293Z,3.85
2023-03-29T21:46:38.300Z,3.42
2023-03-29T21:49:05.567Z,2.35
2023-03-29T21:51:32.731Z,4.10
2023-03-29T21:53:59.700Z,3.50
2023-03-29T21:56:28.175Z,3.10
2023-03-29T21:58:55.233Z,4.50
2023-03-29T22:01:22.239Z,3.75
2023-03-29T22:03:49.203Z,3.38
2023-03-29T22:06:16.301Z,3.10
2023-03-29T22:08:43.265Z,2.97
2023-03-29T22:11:14.413Z,3.15
2023-03-29T22:13:42.906Z,5.15
2023-03-29T22:16:14.103Z,4.13
2023-03-29T22:18:44.421Z,3.28
2023-03-29T22:21:14.592Z,3.05
2023-03-29T22:23:42.794Z,3.38
2023-03-29T22:26:12.173Z,4.97
2023-03-29T22:28:39.247Z,4.35
2023-03-29T22:31:09.273Z,5.20
2023-03-29T22:33:37.249Z,4.57
2023-03-29T22:36:12.878Z,4.32
2023-03-29T22:41:06.682Z,4.50
2023-03-29T22:43:33.853Z,4.25
2023-03-29T22:46:00.988Z,4.38
2023-03-29T22:48:28.007Z,3.50
2023-03-29T22:50:54.907Z,4.32
2023-03-29T22:53:22.109Z,4.80
2023-03-29T22:55:49.115Z,3.67
2023-03-29T22:58:16.299Z,4.78
2023-03-29T23:00:43.229Z,3.65
2023-03-29T23:03:10.520Z,3.63
2023-03-29T23:05:38.237Z,3.22
2023-03-29T23:08:06.947Z,3.78
2023-03-29T23:10:34.233Z,3.72
2023-03-29T23:13:13.593Z,4.47
2023-03-29T23:15:47.300Z,3.08
2023-03-29T23:18:18.228Z,4.82
2023-03-29T23:20:47.238Z,3.40
2023-03-29T23:23:16.101Z,4.30
2023-03-29T23:25:45.654Z,2.88
2023-03-29T23:28:13.085Z,3.17
2023-03-29T23:30:40.881Z,3.65
2023-03-29T23:33:10.368Z,3.20
2023-03-29T23:35:37.765Z,3.70
2023-03-29T23:38:05.783Z,4.50
2023-03-29T23:40:33.271Z,3.40
2023-03-29T23:43:00.316Z,3.55
2023-03-29T23:45:30.328Z,2.50
2023-03-29T23:47:57.496Z,3.20
2023-03-29T23:50:24.470Z,3.40
2023-03-29T23:52:51.621Z,4.05
2023-03-29T23:55:19.451Z,3.08
2023-03-29T23:57:46.674Z,2.97
